sensor_id;sensor_type;location;lat;lon;timestamp;P1;durP1;ratioP1;P2;durP2;ratioP2
65206;SDS011;58477;48.072;11.970;2023-05-07T00:00:16;8.40;;;5.25;;
65206;SDS011;58477;48.072;11.970;2023-05-07T00:02:43;5.90;;;5.30;;
65206;SDS011;58477;48.072;11.970;2023-05-07T00:05:12;7.20;;;5.35;;
65206;SDS011;58477;48.072;11.970;2023-05-07T00:07:38;9.05;;;5.25;;
65206;SDS011;58477;48.072;11.970;2023-05-07T00:10:04;7.47;;;5.60;;
65206;SDS011;58477;48.072;11.970;2023-05-07T00:12:31;6.35;;;4.97;;
65206;SDS011;58477;48.072;11.970;2023-05-07T00:14:59;5.75;;;4.93;;
65206;SDS011;58477;48.072;11.970;2023-05-07T00:17:25;5.35;;;4.85;;
65206;SDS011;58477;48.072;11.970;2023-05-07T00:19:50;7.00;;;5.10;;
65206;SDS011;58477;48.072;11.970;2023-05-07T00:22:16;6.35;;;5.65;;
65206;SDS011;58477;48.072;11.970;2023-05-07T00:24:41;8.57;;;5.88;;
65206;SDS011;58477;48.072;11.970;2023-05-07T00:27:07;8.23;;;5.75;;
65206;SDS011;58477;48.072;11.970;2023-05-07T00:29:33;6.32;;;5.72;;
65206;SDS011;58477;48.072;11.970;2023-05-07T00:31:58;6.10;;;5.50;;
65206;SDS011;58477;48.072;11.970;2023-05-07T00:34:23;8.20;;;5.80;;
65206;SDS011;58477;48.072;11.970;2023-05-07T00:36:49;6.40;;;5.70;;
65206;SDS011;58477;48.072;11.970;2023-05-07T00:39:14;6.20;;;5.00;;
65206;SDS011;58477;48.072;11.970;2023-05-07T00:41:40;6.20;;;5.50;;
65206;SDS011;58477;48.072;11.970;2023-05-07T00:44:05;6.50;;;5.80;;
65206;SDS011;58477;48.072;11.970;2023-05-07T00:46:32;8.15;;;5.85;;
65206;SDS011;58477;48.072;11.970;2023-05-07T00:48:57;9.07;;;6.10;;
65206;SDS011;58477;48.072;11.970;2023-05-07T00:51:24;7.53;;;6.32;;
65206;SDS011;58477;48.072;11.970;2023-05-07T00:53:51;7.82;;;6.45;;
65206;SDS011;58477;48.072;11.970;2023-05-07T00:56:17;6.68;;;6.03;;
65206;SDS011;58477;48.072;11.970;2023-05-07T00:58:42;6.72;;;6.03;;
65206;SDS011;58477;48.072;11.970;2023-05-07T01:01:08;10.00;;;6.30;;
65206;SDS011;58477;48.072;11.970;2023-05-07T01:03:34;7.80;;;6.05;;
65206;SDS011;58477;48.072;11.970;2023-05-07T01:05:59;8.10;;;6.63;;
65206;SDS011;58477;48.072;11.970;2023-05-07T01:08:26;7.40;;;6.55;;
65206;SDS011;58477;48.072;11.970;2023-05-07T01:10:55;9.02;;;6.15;;
65206;SDS011;58477;48.072;11.970;2023-05-07T01:13:22;8.75;;;6.55;;
65206;SDS011;58477;48.072;11.970;2023-05-07T01:15:49;9.50;;;7.50;;
65206;SDS011;58477;48.072;11.970;2023-05-07T01:18:15;9.20;;;6.88;;
65206;SDS011;58477;48.072;11.970;2023-05-07T01:20:41;8.45;;;6.80;;
65206;SDS011;58477;48.072;11.970;2023-05-07T01:23:06;10.82;;;6.55;;
65206;SDS011;58477;48.072;11.970;2023-05-07T01:25:32;10.35;;;7.40;;
65206;SDS011;58477;48.072;11.970;2023-05-07T01:28:00;11.90;;;7.82;;
65206;SDS011;58477;48.072;11.970;2023-05-07T01:30:28;9.68;;;6.95;;
65206;SDS011;58477;48.072;11.970;2023-05-07T01:32:56;10.02;;;7.70;;
65206;SDS011;58477;48.072;11.970;2023-05-07T01:35:27;9.05;;;7.43;;
65206;SDS011;58477;48.072;11.970;2023-05-07T01:37:57;7.47;;;6.03;;
65206;SDS011;58477;48.072;11.970;2023-05-07T01:40:24;10.07;;;6.07;;
65206;SDS011;58477;48.072;11.970;2023-05-07T01:42:50;9.15;;;5.55;;
65206;SDS011;58477;48.072;11.970;2023-05-07T01:45:16;5.75;;;5.10;;
65206;SDS011;58477;48.072;11.970;2023-05-07T01:47:42;6.80;;;5.45;;
65206;SDS011;58477;48.072;11.970;2023-05-07T01:50:08;10.45;;;6.00;;
65206;SDS011;58477;48.072;11.970;2023-05-07T01:52:36;7.07;;;6.38;;
65206;SDS011;58477;48.072;11.970;2023-05-07T01:55:04;7.78;;;6.63;;
65206;SDS011;58477;48.072;11.970;2023-05-07T01:57:30;7.28;;;6.57;;
65206;SDS011;58477;48.072;11.970;2023-05-07T01:59:55;7.78;;;6.97;;
65206;SDS011;58477;48.072;11.970;2023-05-07T02:02:21;8.07;;;6.40;;
65206;SDS011;58477;48.072;11.970;2023-05-07T02:04:47;9.13;;;7.03;;
65206;SDS011;58477;48.072;11.970;2023-05-07T02:07:14;10.38;;;8.00;;
65206;SDS011;58477;48.072;11.970;2023-05-07T02:09:39;9.32;;;7.15;;
65206;SDS011;58477;48.072;11.970;2023-05-07T02:12:05;10.30;;;7.47;;
65206;SDS011;58477;48.072;11.970;2023-05-07T02:14:30;8.63;;;7.75;;
65206;SDS011;58477;48.072;11.970;2023-05-07T02:16:56;10.88;;;7.40;;
65206;SDS011;58477;48.072;11.970;2023-05-07T02:19:21;9.05;;;7.68;;
65206;SDS011;58477;48.072;11.970;2023-05-07T02:21:47;11.93;;;8.02;;
65206;SDS011;58477;48.072;11.970;2023-05-07T02:24:13;10.48;;;8.05;;
65206;SDS011;58477;48.072;11.970;2023-05-07T02:26:39;13.93;;;8.30;;
65206;SDS011;58477;48.072;11.970;2023-05-07T02:29:05;13.15;;;8.68;;
65206;SDS011;58477;48.072;11.970;2023-05-07T02:31:31;11.35;;;7.80;;
65206;SDS011;58477;48.072;11.970;2023-05-07T02:33:59;8.05;;;7.25;;
65206;SDS011;58477;48.072;11.970;2023-05-07T02:36:25;9.65;;;7.25;;
65206;SDS011;58477;48.072;11.970;2023-05-07T02:39:01;8.98;;;7.32;;
65206;SDS011;58477;48.072;11.970;2023-05-07T02:41:27;9.20;;;7.93;;
65206;SDS011;58477;48.072;11.970;2023-05-07T02:43:53;9.15;;;7.57;;
65206;SDS011;58477;48.072;11.970;2023-05-07T02:46:20;11.52;;;7.40;;
65206;SDS011;58477;48.072;11.970;2023-05-07T02:48:50;11.13;;;7.55;;
65206;SDS011;58477;48.072;11.970;2023-05-07T02:51:19;9.80;;;7.00;;
65206;SDS011;58477;48.072;11.970;2023-05-07T02:53:46;10.98;;;7.47;;
65206;SDS011;58477;48.072;11.970;2023-05-07T02:56:11;11.73;;;7.70;;
65206;SDS011;58477;48.072;11.970;2023-05-07T02:58:37;13.50;;;8.30;;
65206;SDS011;58477;48.072;11.970;2023-05-07T03:01:05;10.75;;;7.32;;
65206;SDS011;58477;48.072;11.970;2023-05-07T03:03:37;8.57;;;7.40;;
65206;SDS011;58477;48.072;11.970;2023-05-07T03:06:03;9.50;;;7.55;;
65206;SDS011;58477;48.072;11.970;2023-05-07T03:08:28;12.73;;;7.65;;
65206;SDS011;58477;48.072;11.970;2023-05-07T03:10:54;11.23;;;7.95;;
65206;SDS011;58477;48.072;11.970;2023-05-07T03:13:19;11.18;;;6.65;;
65206;SDS011;58477;48.072;11.970;2023-05-07T03:15:45;12.48;;;7.32;;
65206;SDS011;58477;48.072;11.970;2023-05-07T03:18:10;8.90;;;7.40;;
65206;SDS011;58477;48.072;11.970;2023-05-07T03:20:36;14.75;;;8.57;;
65206;SDS011;58477;48.072;11.970;2023-05-07T03:23:02;8.88;;;7.38;;
65206;SDS011;58477;48.072;11.970;2023-05-07T03:25:27;11.25;;;7.25;;
65206;SDS011;58477;48.072;11.970;2023-05-07T03:27:55;9.10;;;7.40;;
65206;SDS011;58477;48.072;11.970;2023-05-07T03:30:26;12.30;;;8.03;;
65206;SDS011;58477;48.072;11.970;2023-05-07T03:32:51;12.90;;;7.35;;
65206;SDS011;58477;48.072;11.970;2023-05-07T03:35:16;9.63;;;7.95;;
65206;SDS011;58477;48.072;11.970;2023-05-07T03:37:42;11.02;;;7.85;;
65206;SDS011;58477;48.072;11.970;2023-05-07T03:40:09;9.70;;;7.40;;
65206;SDS011;58477;48.072;11.970;2023-05-07T03:42:42;8.43;;;7.47;;
65206;SDS011;58477;48.072;11.970;2023-05-07T03:45:08;9.52;;;7.25;;
65206;SDS011;58477;48.072;11.970;2023-05-07T03:47:35;9.90;;;7.45;;
65206;SDS011;58477;48.072;11.970;2023-05-07T03:50:01;10.35;;;7.80;;
65206;SDS011;58477;48.072;11.970;2023-05-07T03:52:26;10.07;;;8.35;;
65206;SDS011;58477;48.072;11.970;2023-05-07T03:54:54;12.93;;;8.65;;
65206;SDS011;58477;48.072;11.970;2023-05-07T03:57:20;12.02;;;8.88;;
65206;SDS011;58477;48.072;11.970;2023-05-07T03:59:46;11.57;;;8.55;;
65206;SDS011;58477;48.072;11.970;2023-05-07T04:02:12;11.35;;;8.10;;
65206;SDS011;58477;48.072;11.970;2023-05-07T04:04:37;10.90;;;8.80;;
65206;SDS011;58477;48.072;11.970;2023-05-07T04:07:03;14.60;;;8.23;;
65206;SDS011;58477;48.072;11.970;2023-05-07T04:09:30;16.38;;;8.23;;
65206;SDS011;58477;48.072;11.970;2023-05-07T04:11:56;8.52;;;7.63;;
65206;SDS011;58477;48.072;11.970;2023-05-07T04:14:22;10.70;;;8.55;;
65206;SDS011;58477;48.072;11.970;2023-05-07T04:16:47;11.48;;;8.02;;
65206;SDS011;58477;48.072;11.970;2023-05-07T04:19:13;10.82;;;8.32;;
65206;SDS011;58477;48.072;11.970;2023-05-07T04:21:38;10.32;;;7.82;;
65206;SDS011;58477;48.072;11.970;2023-05-07T04:24:05;10.63;;;8.65;;
65206;SDS011;58477;48.072;11.970;2023-05-07T04:26:31;10.45;;;8.73;;
65206;SDS011;58477;48.072;11.970;2023-05-07T04:28:57;9.07;;;8.18;;
65206;SDS011;58477;48.072;11.970;2023-05-07T04:31:27;14.75;;;9.15;;
65206;SDS011;58477;48.072;11.970;2023-05-07T04:33:53;12.20;;;8.52;;
65206;SDS011;58477;48.072;11.970;2023-05-07T04:36:19;11.98;;;8.10;;
65206;SDS011;58477;48.072;11.970;2023-05-07T04:38:50;9.98;;;8.40;;
65206;SDS011;58477;48.072;11.970;2023-05-07T04:41:17;10.38;;;8.35;;
65206;SDS011;58477;48.072;11.970;2023-05-07T04:43:42;8.77;;;7.75;;
65206;SDS011;58477;48.072;11.970;2023-05-07T04:46:09;12.88;;;8.35;;
65206;SDS011;58477;48.072;11.970;2023-05-07T04:48:35;11.25;;;7.68;;
65206;SDS011;58477;48.072;11.970;2023-05-07T04:51:03;10.95;;;7.40;;
65206;SDS011;58477;48.072;11.970;2023-05-07T04:53:29;8.10;;;7.00;;
65206;SDS011;58477;48.072;11.970;2023-05-07T04:55:56;12.93;;;8.77;;
65206;SDS011;58477;48.072;11.970;2023-05-07T04:58:23;11.75;;;8.50;;
65206;SDS011;58477;48.072;11.970;2023-05-07T05:00:49;10.43;;;8.98;;
65206;SDS011;58477;48.072;11.970;2023-05-07T05:03:14;14.43;;;10.80;;
65206;SDS011;58477;48.072;11.970;2023-05-07T05:05:40;21.02;;;12.82;;
65206;SDS011;58477;48.072;11.970;2023-05-07T05:08:06;40.53;;;23.65;;
65206;SDS011;58477;48.072;11.970;2023-05-07T05:10:34;19.70;;;13.55;;
65206;SDS011;58477;48.072;11.970;2023-05-07T05:13:00;21.50;;;12.57;;
65206;SDS011;58477;48.072;11.970;2023-05-07T05:15:26;13.07;;;10.68;;
65206;SDS011;58477;48.072;11.970;2023-05-07T05:17:51;11.27;;;8.13;;
65206;SDS011;58477;48.072;11.970;2023-05-07T05:20:17;8.98;;;7.97;;
65206;SDS011;58477;48.072;11.970;2023-05-07T05:22:42;6.40;;;5.80;;
65206;SDS011;58477;48.072;11.970;2023-05-07T05:25:09;7.53;;;5.90;;
65206;SDS011;58477;48.072;11.970;2023-05-07T05:27:34;10.98;;;8.98;;
65206;SDS011;58477;48.072;11.970;2023-05-07T05:30:01;8.77;;;7.50;;
65206;SDS011;58477;48.072;11.970;2023-05-07T05:32:27;8.82;;;4.80;;
65206;SDS011;58477;48.072;11.970;2023-05-07T05:34:55;6.40;;;4.53;;
65206;SDS011;58477;48.072;11.970;2023-05-07T05:37:21;5.93;;;5.05;;
65206;SDS011;58477;48.072;11.970;2023-05-07T05:39:48;5.45;;;4.47;;
65206;SDS011;58477;48.072;11.970;2023-05-07T05:42:14;5.60;;;5.00;;
65206;SDS011;58477;48.072;11.970;2023-05-07T05:44:40;4.47;;;4.05;;
65206;SDS011;58477;48.072;11.970;2023-05-07T05:47:05;4.38;;;3.97;;
65206;SDS011;58477;48.072;11.970;2023-05-07T05:49:31;3.67;;;3.30;;
65206;SDS011;58477;48.072;11.970;2023-05-07T05:51:57;4.07;;;3.72;;
65206;SDS011;58477;48.072;11.970;2023-05-07T05:54:24;6.28;;;2.92;;
65206;SDS011;58477;48.072;11.970;2023-05-07T05:56:50;6.35;;;3.05;;
65206;SDS011;58477;48.072;11.970;2023-05-07T05:59:15;3.80;;;3.03;;
65206;SDS011;58477;48.072;11.970;2023-05-07T06:01:41;4.75;;;3.88;;
65206;SDS011;58477;48.072;11.970;2023-05-07T06:04:06;4.13;;;3.70;;
65206;SDS011;58477;48.072;11.970;2023-05-07T06:06:33;7.07;;;3.70;;
65206;SDS011;58477;48.072;11.970;2023-05-07T06:08:59;5.22;;;2.70;;
65206;SDS011;58477;48.072;11.970;2023-05-07T06:11:32;3.90;;;2.88;;
65206;SDS011;58477;48.072;11.970;2023-05-07T06:13:58;3.47;;;2.42;;
65206;SDS011;58477;48.072;11.970;2023-05-07T06:16:24;6.50;;;2.72;;
65206;SDS011;58477;48.072;11.970;2023-05-07T06:18:50;3.58;;;2.75;;
65206;SDS011;58477;48.072;11.970;2023-05-07T06:21:16;7.53;;;3.17;;
65206;SDS011;58477;48.072;11.970;2023-05-07T06:23:41;3.63;;;2.50;;
65206;SDS011;58477;48.072;11.970;2023-05-07T06:26:07;4.00;;;2.58;;
65206;SDS011;58477;48.072;11.970;2023-05-07T06:28:37;4.95;;;2.55;;
65206;SDS011;58477;48.072;11.970;2023-05-07T06:31:17;3.92;;;2.45;;
65206;SDS011;58477;48.072;11.970;2023-05-07T06:33:51;8.27;;;2.72;;
65206;SDS011;58477;48.072;11.970;2023-05-07T06:36:17;2.88;;;2.03;;
65206;SDS011;58477;48.072;11.970;2023-05-07T06:38:44;3.92;;;2.15;;
65206;SDS011;58477;48.072;11.970;2023-05-07T06:41:09;3.10;;;2.60;;
65206;SDS011;58477;48.072;11.970;2023-05-07T06:43:37;2.65;;;2.45;;
65206;SDS011;58477;48.072;11.970;2023-05-07T06:46:21;3.42;;;2.47;;
65206;SDS011;58477;48.072;11.970;2023-05-07T06:48:46;4.30;;;2.38;;
65206;SDS011;58477;48.072;11.970;2023-05-07T06:51:13;9.73;;;3.10;;
65206;SDS011;58477;48.072;11.970;2023-05-07T06:53:38;3.17;;;2.60;;
65206;SDS011;58477;48.072;11.970;2023-05-07T06:56:04;2.92;;;2.60;;
65206;SDS011;58477;48.072;11.970;2023-05-07T06:58:30;3.30;;;2.28;;
65206;SDS011;58477;48.072;11.970;2023-05-07T07:00:56;3.65;;;2.50;;
65206;SDS011;58477;48.072;11.970;2023-05-07T07:03:22;4.07;;;2.67;;
65206;SDS011;58477;48.072;11.970;2023-05-07T07:05:50;2.75;;;2.50;;
65206;SDS011;58477;48.072;11.970;2023-05-07T07:08:17;3.50;;;2.70;;
65206;SDS011;58477;48.072;11.970;2023-05-07T07:10:43;3.90;;;2.40;;
65206;SDS011;58477;48.072;11.970;2023-05-07T07:13:08;2.42;;;2.22;;
65206;SDS011;58477;48.072;11.970;2023-05-07T07:15:34;4.40;;;2.45;;
65206;SDS011;58477;48.072;11.970;2023-05-07T07:18:00;4.13;;;2.70;;
65206;SDS011;58477;48.072;11.970;2023-05-07T07:20:25;2.70;;;2.50;;
65206;SDS011;58477;48.072;11.970;2023-05-07T07:22:51;4.63;;;3.20;;
65206;SDS011;58477;48.072;11.970;2023-05-07T07:25:17;3.53;;;3.00;;
65206;SDS011;58477;48.072;11.970;2023-05-07T07:27:42;3.88;;;3.10;;
65206;SDS011;58477;48.072;11.970;2023-05-07T07:30:09;4.82;;;2.95;;
65206;SDS011;58477;48.072;11.970;2023-05-07T07:32:37;3.50;;;3.13;;
65206;SDS011;58477;48.072;11.970;2023-05-07T07:35:03;6.03;;;3.50;;
65206;SDS011;58477;48.072;11.970;2023-05-07T07:37:29;5.60;;;3.63;;
65206;SDS011;58477;48.072;11.970;2023-05-07T07:39:55;5.53;;;3.47;;
65206;SDS011;58477;48.072;11.970;2023-05-07T07:42:21;6.65;;;4.00;;
65206;SDS011;58477;48.072;11.970;2023-05-07T07:44:46;4.80;;;3.78;;
65206;SDS011;58477;48.072;11.970;2023-05-07T07:47:14;6.55;;;3.97;;
65206;SDS011;58477;48.072;11.970;2023-05-07T07:49:41;6.68;;;3.75;;
65206;SDS011;58477;48.072;11.970;2023-05-07T07:52:08;8.65;;;4.10;;
65206;SDS011;58477;48.072;11.970;2023-05-07T07:54:35;4.45;;;4.05;;
65206;SDS011;58477;48.072;11.970;2023-05-07T07:57:02;4.60;;;4.20;;
65206;SDS011;58477;48.072;11.970;2023-05-07T07:59:31;6.43;;;4.38;;
65206;SDS011;58477;48.072;11.970;2023-05-07T08:01:57;5.60;;;4.13;;
65206;SDS011;58477;48.072;11.970;2023-05-07T08:04:25;4.60;;;3.60;;
65206;SDS011;58477;48.072;11.970;2023-05-07T08:06:51;3.60;;;3.30;;
65206;SDS011;58477;48.072;11.970;2023-05-07T08:09:19;4.32;;;2.92;;
65206;SDS011;58477;48.072;11.970;2023-05-07T08:11:46;3.55;;;3.25;;
65206;SDS011;58477;48.072;11.970;2023-05-07T08:14:12;4.20;;;3.30;;
65206;SDS011;58477;48.072;11.970;2023-05-07T08:16:38;3.63;;;3.33;;
65206;SDS011;58477;48.072;11.970;2023-05-07T08:19:04;3.97;;;3.35;;
65206;SDS011;58477;48.072;11.970;2023-05-07T08:21:29;7.95;;;3.90;;
65206;SDS011;58477;48.072;11.970;2023-05-07T08:23:56;3.90;;;3.60;;
65206;SDS011;58477;48.072;11.970;2023-05-07T08:26:22;4.00;;;3.60;;
65206;SDS011;58477;48.072;11.970;2023-05-07T08:28:47;5.53;;;3.45;;
65206;SDS011;58477;48.072;11.970;2023-05-07T08:31:13;7.60;;;3.55;;
65206;SDS011;58477;48.072;11.970;2023-05-07T08:33:40;4.38;;;3.20;;
65206;SDS011;58477;48.072;11.970;2023-05-07T08:36:06;5.28;;;3.47;;
65206;SDS011;58477;48.072;11.970;2023-05-07T08:38:32;4.20;;;3.38;;
65206;SDS011;58477;48.072;11.970;2023-05-07T08:40:57;3.38;;;3.08;;
65206;SDS011;58477;48.072;11.970;2023-05-07T08:43:25;6.15;;;3.30;;
65206;SDS011;58477;48.072;11.970;2023-05-07T08:45:53;5.00;;;4.00;;
65206;SDS011;58477;48.072;11.970;2023-05-07T08:48:21;6.93;;;3.58;;
65206;SDS011;58477;48.072;11.970;2023-05-07T08:50:55;3.88;;;3.28;;
65206;SDS011;58477;48.072;11.970;2023-05-07T08:53:22;5.05;;;3.50;;
65206;SDS011;58477;48.072;11.970;2023-05-07T08:55:49;3.75;;;3.45;;
65206;SDS011;58477;48.072;11.970;2023-05-07T08:58:15;4.45;;;3.60;;
65206;SDS011;58477;48.072;11.970;2023-05-07T09:00:42;7.68;;;3.50;;
65206;SDS011;58477;48.072;11.970;2023-05-07T09:03:07;3.63;;;2.83;;
65206;SDS011;58477;48.072;11.970;2023-05-07T09:05:34;4.90;;;3.00;;
65206;SDS011;58477;48.072;11.970;2023-05-07T09:08:02;3.90;;;3.45;;
65206;SDS011;58477;48.072;11.970;2023-05-07T09:10:29;5.45;;;3.33;;
65206;SDS011;58477;48.072;11.970;2023-05-07T09:12:55;4.50;;;2.78;;
65206;SDS011;58477;48.072;11.970;2023-05-07T09:15:21;3.35;;;2.97;;
65206;SDS011;58477;48.072;11.970;2023-05-07T09:17:46;3.70;;;3.40;;
65206;SDS011;58477;48.072;11.970;2023-05-07T09:20:12;3.65;;;2.65;;
65206;SDS011;58477;48.072;11.970;2023-05-07T09:22:39;5.50;;;2.60;;
65206;SDS011;58477;48.072;11.970;2023-05-07T09:25:08;4.38;;;3.00;;
65206;SDS011;58477;48.072;11.970;2023-05-07T09:27:36;4.88;;;3.00;;
65206;SDS011;58477;48.072;11.970;2023-05-07T09:30:03;3.55;;;3.20;;
65206;SDS011;58477;48.072;11.970;2023-05-07T09:32:34;3.85;;;2.80;;
65206;SDS011;58477;48.072;11.970;2023-05-07T09:35:01;4.57;;;2.75;;
65206;SDS011;58477;48.072;11.970;2023-05-07T09:37:28;3.25;;;2.67;;
65206;SDS011;58477;48.072;11.970;2023-05-07T09:39:56;3.80;;;2.33;;
65206;SDS011;58477;48.072;11.970;2023-05-07T09:42:26;3.17;;;2.53;;
65206;SDS011;58477;48.072;11.970;2023-05-07T09:44:54;3.65;;;2.60;;
65206;SDS011;58477;48.072;11.970;2023-05-07T09:47:24;5.90;;;2.80;;
65206;SDS011;58477;48.072;11.970;2023-05-07T09:49:54;3.13;;;2.63;;
65206;SDS011;58477;48.072;11.970;2023-05-07T09:52:23;4.28;;;2.45;;
65206;SDS011;58477;48.072;11.970;2023-05-07T09:54:52;2.70;;;2.17;;
65206;SDS011;58477;48.072;11.970;2023-05-07T09:57:23;4.07;;;2.17;;
65206;SDS011;58477;48.072;11.970;2023-05-07T09:59:54;2.28;;;2.08;;
65206;SDS011;58477;48.072;11.970;2023-05-07T10:02:22;3.95;;;2.30;;
65206;SDS011;58477;48.072;11.970;2023-05-07T10:04:52;2.70;;;2.17;;
65206;SDS011;58477;48.072;11.970;2023-05-07T10:07:24;2.95;;;1.98;;
65206;SDS011;58477;48.072;11.970;2023-05-07T10:09:53;2.22;;;2.03;;
65206;SDS011;58477;48.072;11.970;2023-05-07T10:12:28;3.20;;;2.10;;
65206;SDS011;58477;48.072;11.970;2023-05-07T10:14:54;2.15;;;1.90;;
65206;SDS011;58477;48.072;11.970;2023-05-07T10:17:21;4.07;;;1.85;;
65206;SDS011;58477;48.072;11.970;2023-05-07T10:19:48;4.53;;;1.80;;
65206;SDS011;58477;48.072;11.970;2023-05-07T10:22:16;2.53;;;1.65;;
65206;SDS011;58477;48.072;11.970;2023-05-07T10:24:44;3.72;;;1.65;;
65206;SDS011;58477;48.072;11.970;2023-05-07T10:27:16;2.00;;;1.80;;
65206;SDS011;58477;48.072;11.970;2023-05-07T10:32:30;2.15;;;1.80;;
65206;SDS011;58477;48.072;11.970;2023-05-07T10:35:21;2.65;;;2.10;;
65206;SDS011;58477;48.072;11.970;2023-05-07T10:37:52;2.47;;;1.50;;
65206;SDS011;58477;48.072;11.970;2023-05-07T10:40:20;2.70;;;1.75;;
65206;SDS011;58477;48.072;11.970;2023-05-07T10:42:54;2.40;;;2.00;;
65206;SDS011;58477;48.072;11.970;2023-05-07T10:45:21;3.53;;;2.75;;
65206;SDS011;58477;48.072;11.970;2023-05-07T10:50:39;2.22;;;2.00;;
65206;SDS011;58477;48.072;11.970;2023-05-07T10:55:51;3.22;;;2.30;;
65206;SDS011;58477;48.072;11.970;2023-05-07T10:58:46;3.45;;;2.15;;
65206;SDS011;58477;48.072;11.970;2023-05-07T11:04:15;2.20;;;2.00;;
65206;SDS011;58477;48.072;11.970;2023-05-07T11:15:07;4.03;;;1.90;;
65206;SDS011;58477;48.072;11.970;2023-05-07T11:17:54;2.28;;;1.77;;
65206;SDS011;58477;48.072;11.970;2023-05-07T11:26:12;2.95;;;2.08;;
65206;SDS011;58477;48.072;11.970;2023-05-07T11:28:40;4.30;;;2.10;;
65206;SDS011;58477;48.072;11.970;2023-05-07T11:31:07;2.80;;;2.60;;
65206;SDS011;58477;48.072;11.970;2023-05-07T11:33:34;4.20;;;2.20;;
65206;SDS011;58477;48.072;11.970;2023-05-07T11:36:03;2.22;;;2.00;;
65206;SDS011;58477;48.072;11.970;2023-05-07T11:38:35;2.22;;;1.90;;
65206;SDS011;58477;48.072;11.970;2023-05-07T11:41:02;2.80;;;1.40;;
65206;SDS011;58477;48.072;11.970;2023-05-07T11:43:29;4.78;;;2.25;;
65206;SDS011;58477;48.072;11.970;2023-05-07T11:45:58;1.98;;;1.55;;
65206;SDS011;58477;48.072;11.970;2023-05-07T11:48:30;2.38;;;2.15;;
65206;SDS011;58477;48.072;11.970;2023-05-07T11:51:01;2.15;;;1.95;;
65206;SDS011;58477;48.072;11.970;2023-05-07T11:53:28;2.57;;;1.60;;
65206;SDS011;58477;48.072;11.970;2023-05-07T11:56:05;3.90;;;3.40;;
65206;SDS011;58477;48.072;11.970;2023-05-07T11:58:32;4.95;;;1.80;;
65206;SDS011;58477;48.072;11.970;2023-05-07T12:00:57;4.00;;;2.20;;
65206;SDS011;58477;48.072;11.970;2023-05-07T12:03:23;2.25;;;1.80;;
65206;SDS011;58477;48.072;11.970;2023-05-07T12:05:48;2.20;;;1.98;;
65206;SDS011;58477;48.072;11.970;2023-05-07T12:08:14;2.10;;;1.90;;
65206;SDS011;58477;48.072;11.970;2023-05-07T12:10:41;6.07;;;3.50;;
65206;SDS011;58477;48.072;11.970;2023-05-07T12:13:17;1.90;;;1.80;;
65206;SDS011;58477;48.072;11.970;2023-05-07T12:15:43;1.60;;;1.50;;
65206;SDS011;58477;48.072;11.970;2023-05-07T12:18:09;1.77;;;1.60;;
65206;SDS011;58477;48.072;11.970;2023-05-07T12:20:36;2.42;;;1.60;;
65206;SDS011;58477;48.072;11.970;2023-05-07T12:23:01;2.50;;;1.50;;
65206;SDS011;58477;48.072;11.970;2023-05-07T12:25:31;1.88;;;1.55;;
65206;SDS011;58477;48.072;11.970;2023-05-07T12:27:57;2.85;;;1.55;;
65206;SDS011;58477;48.072;11.970;2023-05-07T12:30:25;1.60;;;1.50;;
65206;SDS011;58477;48.072;11.970;2023-05-07T12:32:54;3.03;;;1.42;;
65206;SDS011;58477;48.072;11.970;2023-05-07T12:35:26;2.28;;;1.40;;
65206;SDS011;58477;48.072;11.970;2023-05-07T12:37:55;1.45;;;1.35;;
65206;SDS011;58477;48.072;11.970;2023-05-07T12:42:52;1.48;;;1.38;;
65206;SDS011;58477;48.072;11.970;2023-05-07T12:45:19;6.05;;;1.77;;
65206;SDS011;58477;48.072;11.970;2023-05-07T12:47:45;2.05;;;1.45;;
65206;SDS011;58477;48.072;11.970;2023-05-07T12:50:11;2.13;;;1.25;;
65206;SDS011;58477;48.072;11.970;2023-05-07T12:52:37;2.40;;;1.55;;
65206;SDS011;58477;48.072;11.970;2023-05-07T12:55:04;2.28;;;1.70;;
65206;SDS011;58477;48.072;11.970;2023-05-07T12:57:31;4.00;;;1.80;;
65206;SDS011;58477;48.072;11.970;2023-05-07T13:00:03;1.55;;;1.45;;
65206;SDS011;58477;48.072;11.970;2023-05-07T13:02:33;6.05;;;1.60;;
65206;SDS011;58477;48.072;11.970;2023-05-07T13:04:59;3.22;;;1.60;;
65206;SDS011;58477;48.072;11.970;2023-05-07T13:07:25;6.68;;;1.65;;
65206;SDS011;58477;48.072;11.970;2023-05-07T13:09:53;2.00;;;1.73;;
65206;SDS011;58477;48.072;11.970;2023-05-07T13:12:19;7.50;;;1.70;;
65206;SDS011;58477;48.072;11.970;2023-05-07T13:14:44;2.83;;;2.05;;
65206;SDS011;58477;48.072;11.970;2023-05-07T13:17:10;1.88;;;1.70;;
65206;SDS011;58477;48.072;11.970;2023-05-07T13:19:35;4.85;;;1.60;;
65206;SDS011;58477;48.072;11.970;2023-05-07T13:22:02;1.67;;;1.58;;
65206;SDS011;58477;48.072;11.970;2023-05-07T13:24:28;1.58;;;1.42;;
65206;SDS011;58477;48.072;11.970;2023-05-07T13:26:53;2.55;;;2.33;;
65206;SDS011;58477;48.072;11.970;2023-05-07T13:29:18;1.92;;;1.80;;
65206;SDS011;58477;48.072;11.970;2023-05-07T13:31:44;2.13;;;1.90;;
65206;SDS011;58477;48.072;11.970;2023-05-07T13:34:10;4.25;;;2.08;;
65206;SDS011;58477;48.072;11.970;2023-05-07T13:36:35;1.92;;;1.70;;
65206;SDS011;58477;48.072;11.970;2023-05-07T13:39:04;2.20;;;1.70;;
65206;SDS011;58477;48.072;11.970;2023-05-07T13:41:31;2.88;;;1.83;;
65206;SDS011;58477;48.072;11.970;2023-05-07T13:43:56;2.75;;;1.63;;
65206;SDS011;58477;48.072;11.970;2023-05-07T13:46:22;4.32;;;1.60;;
65206;SDS011;58477;48.072;11.970;2023-05-07T13:48:47;2.78;;;1.90;;
65206;SDS011;58477;48.072;11.970;2023-05-07T13:51:12;2.20;;;1.88;;
65206;SDS011;58477;48.072;11.970;2023-05-07T13:53:38;1.92;;;1.73;;
65206;SDS011;58477;48.072;11.970;2023-05-07T13:56:03;1.60;;;1.50;;
65206;SDS011;58477;48.072;11.970;2023-05-07T13:58:29;1.73;;;1.63;;
65206;SDS011;58477;48.072;11.970;2023-05-07T14:00:55;3.88;;;1.65;;
65206;SDS011;58477;48.072;11.970;2023-05-07T14:03:20;1.60;;;1.50;;
65206;SDS011;58477;48.072;11.970;2023-05-07T14:05:46;1.85;;;1.30;;
65206;SDS011;58477;48.072;11.970;2023-05-07T14:08:12;2.42;;;1.33;;
65206;SDS011;58477;48.072;11.970;2023-05-07T14:10:39;1.90;;;1.42;;
65206;SDS011;58477;48.072;11.970;2023-05-07T14:13:05;3.63;;;1.48;;
65206;SDS011;58477;48.072;11.970;2023-05-07T14:15:31;1.75;;;1.52;;
65206;SDS011;58477;48.072;11.970;2023-05-07T14:17:57;2.95;;;1.48;;
65206;SDS011;58477;48.072;11.970;2023-05-07T14:20:24;2.28;;;1.60;;
65206;SDS011;58477;48.072;11.970;2023-05-07T14:22:50;3.30;;;1.77;;
65206;SDS011;58477;48.072;11.970;2023-05-07T14:25:15;3.20;;;1.60;;
65206;SDS011;58477;48.072;11.970;2023-05-07T14:27:44;2.90;;;1.60;;
65206;SDS011;58477;48.072;11.970;2023-05-07T14:30:10;3.70;;;1.50;;
65206;SDS011;58477;48.072;11.970;2023-05-07T14:32:36;2.40;;;1.65;;
65206;SDS011;58477;48.072;11.970;2023-05-07T14:35:01;4.53;;;1.55;;
65206;SDS011;58477;48.072;11.970;2023-05-07T14:37:27;2.40;;;1.33;;
65206;SDS011;58477;48.072;11.970;2023-05-07T14:39:53;1.38;;;1.27;;
65206;SDS011;58477;48.072;11.970;2023-05-07T14:42:18;2.22;;;1.50;;
65206;SDS011;58477;48.072;11.970;2023-05-07T14:44:44;1.50;;;1.40;;
65206;SDS011;58477;48.072;11.970;2023-05-07T14:47:11;1.85;;;1.35;;
65206;SDS011;58477;48.072;11.970;2023-05-07T14:49:37;1.40;;;1.30;;
65206;SDS011;58477;48.072;11.970;2023-05-07T14:52:03;4.75;;;1.38;;
65206;SDS011;58477;48.072;11.970;2023-05-07T14:54:33;6.10;;;1.60;;
65206;SDS011;58477;48.072;11.970;2023-05-07T14:56:59;1.50;;;1.40;;